sensor_id;sensor_type;location;lat;lon;timestamp;P1;durP1;ratioP1;P2;durP2;ratioP2
20880;SDS011;10600;53.096;8.802;2023-10-08T00:00:05;3.03;;;2.92;;
20880;SDS011;10600;53.096;8.802;2023-10-08T00:01:25;4.20;;;4.10;;
20880;SDS011;10600;53.096;8.802;2023-10-08T00:02:26;3.40;;;3.30;;
20880;SDS011;10600;53.096;8.802;2023-10-08T00:03:27;4.20;;;4.05;;
20880;SDS011;10600;53.096;8.802;2023-10-08T00:04:29;3.65;;;3.55;;
20880;SDS011;10600;53.096;8.802;2023-10-08T00:05:34;4.13;;;4.03;;
20880;SDS011;10600;53.096;8.802;2023-10-08T00:06:36;3.88;;;3.78;;
20880;SDS011;10600;53.096;8.802;2023-10-08T00:07:38;2.83;;;2.72;;
20880;SDS011;10600;53.096;8.802;2023-10-08T00:08:42;2.30;;;2.20;;
20880;SDS011;10600;53.096;8.802;2023-10-08T00:09:43;2.92;;;2.83;;
20880;SDS011;10600;53.096;8.802;2023-10-08T00:10:44;5.30;;;5.10;;
20880;SDS011;10600;53.096;8.802;2023-10-08T00:11:45;1.50;;;1.50;;
20880;SDS011;10600;53.096;8.802;2023-10-08T00:12:51;2.10;;;2.00;;
20880;SDS011;10600;53.096;8.802;2023-10-08T00:13:52;2.50;;;2.40;;
20880;SDS011;10600;53.096;8.802;2023-10-08T00:14:56;3.25;;;3.15;;
20880;SDS011;10600;53.096;8.802;2023-10-08T00:15:59;2.80;;;2.70;;
20880;SDS011;10600;53.096;8.802;2023-10-08T00:17:00;1.85;;;1.77;;
20880;SDS011;10600;53.096;8.802;2023-10-08T00:18:04;2.28;;;2.17;;
20880;SDS011;10600;53.096;8.802;2023-10-08T00:19:08;3.45;;;3.35;;
20880;SDS011;10600;53.096;8.802;2023-10-08T00:20:13;2.42;;;2.33;;
20880;SDS011;10600;53.096;8.802;2023-10-08T00:21:25;4.35;;;4.15;;
20880;SDS011;10600;53.096;8.802;2023-10-08T00:22:26;3.85;;;3.72;;
20880;SDS011;10600;53.096;8.802;2023-10-08T00:23:29;2.00;;;1.90;;
20880;SDS011;10600;53.096;8.802;2023-10-08T00:24:30;1.77;;;1.67;;
20880;SDS011;10600;53.096;8.802;2023-10-08T00:25:33;1.50;;;1.50;;
20880;SDS011;10600;53.096;8.802;2023-10-08T00:26:34;2.33;;;2.22;;
20880;SDS011;10600;53.096;8.802;2023-10-08T00:27:39;1.80;;;1.70;;
20880;SDS011;10600;53.096;8.802;2023-10-08T00:28:41;1.73;;;1.63;;
20880;SDS011;10600;53.096;8.802;2023-10-08T00:29:42;2.60;;;2.50;;
20880;SDS011;10600;53.096;8.802;2023-10-08T00:30:43;1.98;;;1.88;;
20880;SDS011;10600;53.096;8.802;2023-10-08T00:31:45;4.47;;;4.30;;
20880;SDS011;10600;53.096;8.802;2023-10-08T00:32:46;2.30;;;2.20;;
20880;SDS011;10600;53.096;8.802;2023-10-08T00:33:47;2.72;;;2.63;;
20880;SDS011;10600;53.096;8.802;2023-10-08T00:34:48;4.63;;;4.43;;
20880;SDS011;10600;53.096;8.802;2023-10-08T00:35:49;1.13;;;1.00;;
20880;SDS011;10600;53.096;8.802;2023-10-08T00:36:50;2.00;;;1.90;;
20880;SDS011;10600;53.096;8.802;2023-10-08T00:37:51;2.50;;;2.40;;
20880;SDS011;10600;53.096;8.802;2023-10-08T00:38:54;2.30;;;2.20;;
20880;SDS011;10600;53.096;8.802;2023-10-08T00:39:59;1.90;;;1.83;;
20880;SDS011;10600;53.096;8.802;2023-10-08T00:41:00;1.90;;;1.80;;
20880;SDS011;10600;53.096;8.802;2023-10-08T00:42:01;1.80;;;1.70;;
20880;SDS011;10600;53.096;8.802;2023-10-08T00:43:04;2.90;;;2.80;;
20880;SDS011;10600;53.096;8.802;2023-10-08T00:44:10;2.83;;;2.72;;
20880;SDS011;10600;53.096;8.802;2023-10-08T00:45:18;3.10;;;3.00;;
20880;SDS011;10600;53.096;8.802;2023-10-08T00:46:19;2.88;;;2.78;;
20880;SDS011;10600;53.096;8.802;2023-10-08T00:47:24;2.78;;;2.67;;
20880;SDS011;10600;53.096;8.802;2023-10-08T00:48:28;2.75;;;2.65;;
20880;SDS011;10600;53.096;8.802;2023-10-08T00:49:36;1.38;;;1.30;;
20880;SDS011;10600;53.096;8.802;2023-10-08T00:50:37;2.58;;;2.47;;
20880;SDS011;10600;53.096;8.802;2023-10-08T00:51:47;1.45;;;1.45;;
20880;SDS011;10600;53.096;8.802;2023-10-08T00:52:59;1.00;;;1.00;;
20880;SDS011;10600;53.096;8.802;2023-10-08T00:54:01;1.77;;;1.67;;
20880;SDS011;10600;53.096;8.802;2023-10-08T00:55:08;1.30;;;1.20;;
20880;SDS011;10600;53.096;8.802;2023-10-08T00:56:14;1.42;;;1.33;;
20880;SDS011;10600;53.096;8.802;2023-10-08T00:57:21;1.40;;;1.40;;
20880;SDS011;10600;53.096;8.802;2023-10-08T00:58:23;1.60;;;1.50;;
20880;SDS011;10600;53.096;8.802;2023-10-08T00:59:25;1.13;;;1.10;;
20880;SDS011;10600;53.096;8.802;2023-10-08T01:00:26;1.60;;;1.50;;
20880;SDS011;10600;53.096;8.802;2023-10-08T01:01:33;1.30;;;1.20;;
20880;SDS011;10600;53.096;8.802;2023-10-08T01:02:35;1.25;;;1.08;;
20880;SDS011;10600;53.096;8.802;2023-10-08T01:04:00;1.90;;;1.80;;
20880;SDS011;10600;53.096;8.802;2023-10-08T01:05:03;1.60;;;1.50;;
20880;SDS011;10600;53.096;8.802;2023-10-08T01:06:04;3.08;;;2.97;;
20880;SDS011;10600;53.096;8.802;2023-10-08T01:07:10;3.30;;;3.20;;
20880;SDS011;10600;53.096;8.802;2023-10-08T01:08:18;3.58;;;3.40;;
20880;SDS011;10600;53.096;8.802;2023-10-08T01:09:32;2.70;;;2.60;;
20880;SDS011;10600;53.096;8.802;2023-10-08T01:10:35;3.58;;;3.35;;
20880;SDS011;10600;53.096;8.802;2023-10-08T01:11:36;2.08;;;1.98;;
20880;SDS011;10600;53.096;8.802;2023-10-08T01:12:49;2.13;;;2.03;;
20880;SDS011;10600;53.096;8.802;2023-10-08T01:14:05;2.10;;;2.00;;
20880;SDS011;10600;53.096;8.802;2023-10-08T01:15:07;1.92;;;1.83;;
20880;SDS011;10600;53.096;8.802;2023-10-08T01:16:35;1.02;;;1.02;;
20880;SDS011;10600;53.096;8.802;2023-10-08T01:17:36;5.32;;;5.13;;
20880;SDS011;10600;53.096;8.802;2023-10-08T01:18:46;2.00;;;1.90;;
20880;SDS011;10600;53.096;8.802;2023-10-08T01:19:50;2.88;;;2.78;;
20880;SDS011;10600;53.096;8.802;2023-10-08T01:20:56;4.40;;;4.20;;
20880;SDS011;10600;53.096;8.802;2023-10-08T01:22:04;2.90;;;2.80;;
20880;SDS011;10600;53.096;8.802;2023-10-08T01:23:08;2.92;;;2.80;;
20880;SDS011;10600;53.096;8.802;2023-10-08T01:24:22;3.53;;;3.33;;
20880;SDS011;10600;53.096;8.802;2023-10-08T01:25:24;2.65;;;2.55;;
20880;SDS011;10600;53.096;8.802;2023-10-08T01:26:29;4.05;;;3.92;;
20880;SDS011;10600;53.096;8.802;2023-10-08T01:27:31;4.03;;;3.83;;
20880;SDS011;10600;53.096;8.802;2023-10-08T01:28:37;3.10;;;3.00;;
20880;SDS011;10600;53.096;8.802;2023-10-08T01:29:38;3.28;;;3.17;;
20880;SDS011;10600;53.096;8.802;2023-10-08T01:30:40;3.40;;;3.20;;
20880;SDS011;10600;53.096;8.802;2023-10-08T01:31:41;3.30;;;3.20;;
20880;SDS011;10600;53.096;8.802;2023-10-08T01:32:43;6.20;;;5.97;;
20880;SDS011;10600;53.096;8.802;2023-10-08T01:33:44;2.80;;;2.70;;
20880;SDS011;10600;53.096;8.802;2023-10-08T01:34:50;3.17;;;3.05;;
20880;SDS011;10600;53.096;8.802;2023-10-08T01:35:51;3.28;;;3.10;;
20880;SDS011;10600;53.096;8.802;2023-10-08T01:36:52;4.60;;;4.38;;
20880;SDS011;10600;53.096;8.802;2023-10-08T01:37:53;2.13;;;2.03;;
20880;SDS011;10600;53.096;8.802;2023-10-08T01:38:56;4.38;;;4.18;;
20880;SDS011;10600;53.096;8.802;2023-10-08T01:39:58;4.40;;;4.30;;
20880;SDS011;10600;53.096;8.802;2023-10-08T01:41:01;2.22;;;2.13;;
20880;SDS011;10600;53.096;8.802;2023-10-08T01:42:18;2.13;;;2.03;;
20880;SDS011;10600;53.096;8.802;2023-10-08T01:43:20;2.33;;;2.20;;
20880;SDS011;10600;53.096;8.802;2023-10-08T01:44:21;2.78;;;2.67;;
20880;SDS011;10600;53.096;8.802;2023-10-08T01:45:24;2.80;;;2.70;;
20880;SDS011;10600;53.096;8.802;2023-10-08T01:46:25;2.15;;;2.05;;
20880;SDS011;10600;53.096;8.802;2023-10-08T01:47:26;2.30;;;2.20;;
20880;SDS011;10600;53.096;8.802;2023-10-08T01:48:27;2.92;;;2.83;;
20880;SDS011;10600;53.096;8.802;2023-10-08T01:49:33;5.30;;;5.05;;
20880;SDS011;10600;53.096;8.802;2023-10-08T01:50:37;3.45;;;3.35;;
20880;SDS011;10600;53.096;8.802;2023-10-08T01:51:38;4.90;;;4.70;;
20880;SDS011;10600;53.096;8.802;2023-10-08T01:52:44;8.43;;;8.13;;
20880;SDS011;10600;53.096;8.802;2023-10-08T01:53:46;3.40;;;3.30;;
20880;SDS011;10600;53.096;8.802;2023-10-08T01:54:48;6.63;;;6.43;;
20880;SDS011;10600;53.096;8.802;2023-10-08T01:55:49;7.05;;;6.75;;
20880;SDS011;10600;53.096;8.802;2023-10-08T01:56:51;2.03;;;1.92;;
20880;SDS011;10600;53.096;8.802;2023-10-08T01:57:52;1.30;;;1.30;;
20880;SDS011;10600;53.096;8.802;2023-10-08T01:58:53;4.95;;;4.75;;
20880;SDS011;10600;53.096;8.802;2023-10-08T01:59:55;2.38;;;2.28;;
20880;SDS011;10600;53.096;8.802;2023-10-08T02:00:57;3.65;;;3.55;;
20880;SDS011;10600;53.096;8.802;2023-10-08T02:01:59;2.13;;;2.03;;
20880;SDS011;10600;53.096;8.802;2023-10-08T02:03:01;3.72;;;3.63;;
20880;SDS011;10600;53.096;8.802;2023-10-08T02:04:04;7.85;;;7.55;;
20880;SDS011;10600;53.096;8.802;2023-10-08T02:05:06;4.25;;;4.05;;
20880;SDS011;10600;53.096;8.802;2023-10-08T02:06:08;3.97;;;3.80;;
20880;SDS011;10600;53.096;8.802;2023-10-08T02:07:09;3.90;;;3.70;;
20880;SDS011;10600;53.096;8.802;2023-10-08T02:08:13;4.63;;;4.43;;
20880;SDS011;10600;53.096;8.802;2023-10-08T02:09:14;3.60;;;3.45;;
20880;SDS011;10600;53.096;8.802;2023-10-08T02:10:15;24.02;;;23.08;;
20880;SDS011;10600;53.096;8.802;2023-10-08T02:11:16;11.02;;;10.63;;
20880;SDS011;10600;53.096;8.802;2023-10-08T02:12:17;11.85;;;11.40;;
20880;SDS011;10600;53.096;8.802;2023-10-08T02:13:18;10.40;;;10.00;;
20880;SDS011;10600;53.096;8.802;2023-10-08T02:14:20;4.32;;;4.13;;
20880;SDS011;10600;53.096;8.802;2023-10-08T02:15:22;8.13;;;7.82;;
20880;SDS011;10600;53.096;8.802;2023-10-08T02:16:24;12.85;;;12.35;;
20880;SDS011;10600;53.096;8.802;2023-10-08T02:17:25;2.10;;;2.00;;
20880;SDS011;10600;53.096;8.802;2023-10-08T02:18:26;5.90;;;5.70;;
20880;SDS011;10600;53.096;8.802;2023-10-08T02:19:29;4.82;;;4.63;;
20880;SDS011;10600;53.096;8.802;2023-10-08T02:20:30;8.15;;;7.75;;
20880;SDS011;10600;53.096;8.802;2023-10-08T02:21:32;14.77;;;14.27;;
20880;SDS011;10600;53.096;8.802;2023-10-08T02:22:33;2.45;;;2.35;;
20880;SDS011;10600;53.096;8.802;2023-10-08T02:23:35;8.85;;;8.45;;
20880;SDS011;10600;53.096;8.802;2023-10-08T02:24:37;15.50;;;14.95;;
20880;SDS011;10600;53.096;8.802;2023-10-08T02:25:40;16.30;;;15.68;;
20880;SDS011;10600;53.096;8.802;2023-10-08T02:26:41;7.90;;;7.60;;
20880;SDS011;10600;53.096;8.802;2023-10-08T02:27:43;17.35;;;16.65;;
20880;SDS011;10600;53.096;8.802;2023-10-08T02:28:44;12.75;;;12.25;;
20880;SDS011;10600;53.096;8.802;2023-10-08T02:29:45;8.77;;;8.48;;
20880;SDS011;10600;53.096;8.802;2023-10-08T02:30:46;6.10;;;5.90;;
20880;SDS011;10600;53.096;8.802;2023-10-08T02:31:47;10.18;;;9.77;;
20880;SDS011;10600;53.096;8.802;2023-10-08T02:32:48;7.30;;;7.00;;
20880;SDS011;10600;53.096;8.802;2023-10-08T02:33:49;6.88;;;6.57;;
20880;SDS011;10600;53.096;8.802;2023-10-08T02:34:50;7.63;;;7.32;;
20880;SDS011;10600;53.096;8.802;2023-10-08T02:35:51;8.13;;;7.82;;
20880;SDS011;10600;53.096;8.802;2023-10-08T02:36:53;3.25;;;3.15;;
20880;SDS011;10600;53.096;8.802;2023-10-08T02:37:56;3.10;;;3.00;;
20880;SDS011;10600;53.096;8.802;2023-10-08T02:38:59;8.07;;;7.68;;
20880;SDS011;10600;53.096;8.802;2023-10-08T02:40:06;11.70;;;11.25;;
20880;SDS011;10600;53.096;8.802;2023-10-08T02:41:16;15.50;;;14.90;;
20880;SDS011;10600;53.096;8.802;2023-10-08T02:42:17;17.10;;;16.42;;
20880;SDS011;10600;53.096;8.802;2023-10-08T02:43:18;16.80;;;16.10;;
20880;SDS011;10600;53.096;8.802;2023-10-08T02:44:20;3.13;;;3.03;;
20880;SDS011;10600;53.096;8.802;2023-10-08T02:45:22;3.85;;;3.75;;
20880;SDS011;10600;53.096;8.802;2023-10-08T02:46:25;6.82;;;6.57;;
20880;SDS011;10600;53.096;8.802;2023-10-08T02:47:29;9.07;;;8.70;;
20880;SDS011;10600;53.096;8.802;2023-10-08T02:48:33;2.85;;;2.75;;
20880;SDS011;10600;53.096;8.802;2023-10-08T02:49:35;2.83;;;2.72;;
20880;SDS011;10600;53.096;8.802;2023-10-08T02:50:36;20.92;;;20.05;;
20880;SDS011;10600;53.096;8.802;2023-10-08T02:51:38;9.88;;;9.48;;
20880;SDS011;10600;53.096;8.802;2023-10-08T02:52:41;4.55;;;4.35;;
20880;SDS011;10600;53.096;8.802;2023-10-08T02:53:41;10.00;;;9.60;;
20880;SDS011;10600;53.096;8.802;2023-10-08T02:54:43;7.80;;;7.50;;
20880;SDS011;10600;53.096;8.802;2023-10-08T02:55:46;5.45;;;5.25;;
20880;SDS011;10600;53.096;8.802;2023-10-08T02:56:48;13.68;;;13.18;;
20880;SDS011;10600;53.096;8.802;2023-10-08T02:57:52;8.20;;;7.90;;
20880;SDS011;10600;53.096;8.802;2023-10-08T02:58:52;6.68;;;6.38;;
20880;SDS011;10600;53.096;8.802;2023-10-08T02:59:55;11.07;;;10.68;;
20880;SDS011;10600;53.096;8.802;2023-10-08T03:00:56;9.52;;;9.13;;
20880;SDS011;10600;53.096;8.802;2023-10-08T03:01:56;3.35;;;3.15;;
20880;SDS011;10600;53.096;8.802;2023-10-08T03:02:57;12.45;;;11.95;;
20880;SDS011;10600;53.096;8.802;2023-10-08T03:04:09;10.52;;;10.07;;
20880;SDS011;10600;53.096;8.802;2023-10-08T03:05:20;9.00;;;8.70;;
20880;SDS011;10600;53.096;8.802;2023-10-08T03:06:22;15.80;;;15.20;;
20880;SDS011;10600;53.096;8.802;2023-10-08T03:07:23;6.70;;;6.40;;
20880;SDS011;10600;53.096;8.802;2023-10-08T03:08:35;7.05;;;6.75;;
20880;SDS011;10600;53.096;8.802;2023-10-08T03:09:37;9.38;;;9.00;;
20880;SDS011;10600;53.096;8.802;2023-10-08T03:10:42;10.48;;;10.05;;
20880;SDS011;10600;53.096;8.802;2023-10-08T03:11:44;10.43;;;9.93;;
20880;SDS011;10600;53.096;8.802;2023-10-08T03:12:47;10.77;;;10.27;;
20880;SDS011;10600;53.096;8.802;2023-10-08T03:13:49;16.73;;;16.02;;
20880;SDS011;10600;53.096;8.802;2023-10-08T03:14:51;9.57;;;9.18;;
20880;SDS011;10600;53.096;8.802;2023-10-08T03:16:13;20.42;;;19.50;;
20880;SDS011;10600;53.096;8.802;2023-10-08T03:17:14;11.32;;;10.82;;
20880;SDS011;10600;53.096;8.802;2023-10-08T03:18:19;15.93;;;15.32;;
20880;SDS011;10600;53.096;8.802;2023-10-08T03:19:21;16.73;;;16.02;;
20880;SDS011;10600;53.096;8.802;2023-10-08T03:20:23;17.80;;;17.10;;
20880;SDS011;10600;53.096;8.802;2023-10-08T03:21:38;24.27;;;23.27;;
20880;SDS011;10600;53.096;8.802;2023-10-08T03:22:39;15.60;;;14.95;;
20880;SDS011;10600;53.096;8.802;2023-10-08T03:23:45;9.07;;;8.68;;
20880;SDS011;10600;53.096;8.802;2023-10-08T03:24:47;13.27;;;12.70;;
20880;SDS011;10600;53.096;8.802;2023-10-08T03:26:58;2.50;;;2.30;;
20880;SDS011;10600;53.096;8.802;2023-10-08T03:28:10;3.13;;;2.92;;
20880;SDS011;10600;53.096;8.802;2023-10-08T03:29:16;2.80;;;2.67;;
20880;SDS011;10600;53.096;8.802;2023-10-08T03:30:18;4.10;;;3.90;;
20880;SDS011;10600;53.096;8.802;2023-10-08T03:31:19;2.45;;;2.25;;
20880;SDS011;10600;53.096;8.802;2023-10-08T03:32:20;2.08;;;1.98;;
20880;SDS011;10600;53.096;8.802;2023-10-08T03:33:27;1.92;;;1.83;;
20880;SDS011;10600;53.096;8.802;2023-10-08T03:34:28;1.70;;;1.60;;
20880;SDS011;10600;53.096;8.802;2023-10-08T03:35:34;1.90;;;1.80;;
20880;SDS011;10600;53.096;8.802;2023-10-08T03:36:37;2.40;;;2.30;;
20880;SDS011;10600;53.096;8.802;2023-10-08T03:37:44;2.80;;;2.60;;
20880;SDS011;10600;53.096;8.802;2023-10-08T03:38:50;2.30;;;2.20;;
20880;SDS011;10600;53.096;8.802;2023-10-08T03:39:51;1.85;;;1.75;;
20880;SDS011;10600;53.096;8.802;2023-10-08T03:40:53;1.90;;;1.80;;
20880;SDS011;10600;53.096;8.802;2023-10-08T03:42:00;2.30;;;2.20;;
20880;SDS011;10600;53.096;8.802;2023-10-08T03:43:08;2.22;;;2.03;;
20880;SDS011;10600;53.096;8.802;2023-10-08T03:44:24;2.60;;;2.40;;
20880;SDS011;10600;53.096;8.802;2023-10-08T03:45:25;2.80;;;2.67;;
20880;SDS011;10600;53.096;8.802;2023-10-08T03:46:44;2.00;;;1.90;;
20880;SDS011;10600;53.096;8.802;2023-10-08T03:47:48;2.35;;;2.15;;
20880;SDS011;10600;53.096;8.802;2023-10-08T03:49:05;1.95;;;1.83;;
20880;SDS011;10600;53.096;8.802;2023-10-08T03:50:14;2.35;;;2.20;;
20880;SDS011;10600;53.096;8.802;2023-10-08T03:51:18;2.30;;;2.20;;
20880;SDS011;10600;53.096;8.802;2023-10-08T03:52:22;2.22;;;2.13;;
20880;SDS011;10600;53.096;8.802;2023-10-08T03:53:25;2.75;;;2.60;;
20880;SDS011;10600;53.096;8.802;2023-10-08T03:54:30;5.25;;;4.95;;
20880;SDS011;10600;53.096;8.802;2023-10-08T03:55:35;1.63;;;1.48;;
20880;SDS011;10600;53.096;8.802;2023-10-08T03:56:39;1.63;;;1.52;;
20880;SDS011;10600;53.096;8.802;2023-10-08T03:57:45;1.80;;;1.70;;
20880;SDS011;10600;53.096;8.802;2023-10-08T03:58:59;1.48;;;1.13;;
20880;SDS011;10600;53.096;8.802;2023-10-08T04:00:01;1.02;;;1.00;;
20880;SDS011;10600;53.096;8.802;2023-10-08T04:01:06;1.23;;;1.00;;
20880;SDS011;10600;53.096;8.802;2023-10-08T04:02:12;1.33;;;1.17;;
20880;SDS011;10600;53.096;8.802;2023-10-08T04:03:14;1.70;;;1.20;;
20880;SDS011;10600;53.096;8.802;2023-10-08T04:04:23;1.20;;;1.10;;
20880;SDS011;10600;53.096;8.802;2023-10-08T04:05:44;1.30;;;1.15;;
20880;SDS011;10600;53.096;8.802;2023-10-08T04:07:18;1.25;;;1.10;;
20880;SDS011;10600;53.096;8.802;2023-10-08T04:08:33;1.00;;;1.00;;
20880;SDS011;10600;53.096;8.802;2023-10-08T04:09:43;1.23;;;1.08;;
20880;SDS011;10600;53.096;8.802;2023-10-08T04:10:45;1.20;;;1.02;;
20880;SDS011;10600;53.096;8.802;2023-10-08T04:11:46;1.30;;;1.20;;
20880;SDS011;10600;53.096;8.802;2023-10-08T04:12:54;1.55;;;1.45;;
20880;SDS011;10600;53.096;8.802;2023-10-08T04:13:55;1.20;;;1.10;;
20880;SDS011;10600;53.096;8.802;2023-10-08T04:15:03;1.05;;;1.00;;
20880;SDS011;10600;53.096;8.802;2023-10-08T04:16:07;1.30;;;1.10;;
20880;SDS011;10600;53.096;8.802;2023-10-08T04:17:08;1.10;;;1.00;;
20880;SDS011;10600;53.096;8.802;2023-10-08T04:18:11;1.23;;;1.00;;
20880;SDS011;10600;53.096;8.802;2023-10-08T04:19:15;1.23;;;1.13;;
20880;SDS011;10600;53.096;8.802;2023-10-08T04:20:18;1.00;;;0.95;;
20880;SDS011;10600;53.096;8.802;2023-10-08T04:21:33;0.90;;;0.90;;
20880;SDS011;10600;53.096;8.802;2023-10-08T04:22:34;1.17;;;1.08;;
20880;SDS011;10600;53.096;8.802;2023-10-08T04:23:36;1.30;;;1.10;;
20880;SDS011;10600;53.096;8.802;2023-10-08T04:24:38;1.15;;;1.05;;
20880;SDS011;10600;53.096;8.802;2023-10-08T04:25:43;1.05;;;0.95;;
20880;SDS011;10600;53.096;8.802;2023-10-08T04:26:44;1.42;;;1.20;;
20880;SDS011;10600;53.096;8.802;2023-10-08T04:27:45;1.13;;;1.00;;
20880;SDS011;10600;53.096;8.802;2023-10-08T04:28:50;1.25;;;1.15;;
20880;SDS011;10600;53.096;8.802;2023-10-08T04:29:54;1.08;;;1.08;;
20880;SDS011;10600;53.096;8.802;2023-10-08T04:30:55;1.35;;;1.20;;
20880;SDS011;10600;53.096;8.802;2023-10-08T04:32:03;1.30;;;1.20;;
20880;SDS011;10600;53.096;8.802;2023-10-08T04:33:08;2.15;;;2.05;;
20880;SDS011;10600;53.096;8.802;2023-10-08T04:34:12;1.30;;;1.20;;
20880;SDS011;10600;53.096;8.802;2023-10-08T04:35:16;1.20;;;1.10;;
20880;SDS011;10600;53.096;8.802;2023-10-08T04:36:17;1.23;;;1.13;;
20880;SDS011;10600;53.096;8.802;2023-10-08T04:37:19;1.20;;;1.10;;
20880;SDS011;10600;53.096;8.802;2023-10-08T04:38:22;1.15;;;1.05;;
20880;SDS011;10600;53.096;8.802;2023-10-08T04:39:25;1.40;;;1.30;;
20880;SDS011;10600;53.096;8.802;2023-10-08T04:40:31;1.10;;;1.10;;
20880;SDS011;10600;53.096;8.802;2023-10-08T04:41:41;1.15;;;1.00;;
20880;SDS011;10600;53.096;8.802;2023-10-08T04:42:45;1.20;;;1.10;;
20880;SDS011;10600;53.096;8.802;2023-10-08T04:43:48;1.30;;;1.20;;
20880;SDS011;10600;53.096;8.802;2023-10-08T04:44:49;1.33;;;1.23;;
20880;SDS011;10600;53.096;8.802;2023-10-08T04:45:52;0.80;;;0.80;;
20880;SDS011;10600;53.096;8.802;2023-10-08T04:46:53;1.92;;;1.15;;
20880;SDS011;10600;53.096;8.802;2023-10-08T04:47:54;1.33;;;1.02;;
20880;SDS011;10600;53.096;8.802;2023-10-08T04:48:58;1.23;;;1.10;;
20880;SDS011;10600;53.096;8.802;2023-10-08T04:50:05;1.10;;;1.10;;
20880;SDS011;10600;53.096;8.802;2023-10-08T04:51:06;1.30;;;1.20;;
20880;SDS011;10600;53.096;8.802;2023-10-08T04:52:12;1.48;;;1.38;;
20880;SDS011;10600;53.096;8.802;2023-10-08T04:53:18;1.20;;;1.10;;
20880;SDS011;10600;53.096;8.802;2023-10-08T04:54:28;1.40;;;1.27;;
20880;SDS011;10600;53.096;8.802;2023-10-08T04:55:32;1.35;;;1.25;;
20880;SDS011;10600;53.096;8.802;2023-10-08T04:56:33;0.93;;;0.93;;
20880;SDS011;10600;53.096;8.802;2023-10-08T04:57:34;1.25;;;1.15;;
20880;SDS011;10600;53.096;8.802;2023-10-08T04:58:35;1.20;;;1.10;;
20880;SDS011;10600;53.096;8.802;2023-10-08T04:59:36;1.45;;;1.35;;
20880;SDS011;10600;53.096;8.802;2023-10-08T05:00:38;1.30;;;1.20;;
20880;SDS011;10600;53.096;8.802;2023-10-08T05:01:53;1.30;;;1.20;;
20880;SDS011;10600;53.096;8.802;2023-10-08T05:03:18;1.15;;;1.10;;
20880;SDS011;10600;53.096;8.802;2023-10-08T05:04:20;1.38;;;1.20;;
20880;SDS011;10600;53.096;8.802;2023-10-08T05:05:23;1.15;;;1.05;;
20880;SDS011;10600;53.096;8.802;2023-10-08T05:06:32;1.50;;;1.40;;
20880;SDS011;10600;53.096;8.802;2023-10-08T05:07:37;1.40;;;1.30;;
20880;SDS011;10600;53.096;8.802;2023-10-08T05:08:47;1.30;;;1.20;;
20880;SDS011;10600;53.096;8.802;2023-10-08T05:09:58;1.20;;;1.10;;
20880;SDS011;10600;53.096;8.802;2023-10-08T05:11:07;1.20;;;1.10;;
20880;SDS011;10600;53.096;8.802;2023-10-08T05:12:24;1.20;;;1.10;;
20880;SDS011;10600;53.096;8.802;2023-10-08T05:13:34;1.38;;;1.10;;
20880;SDS011;10600;53.096;8.802;2023-10-08T05:14:45;1.33;;;1.20;;
20880;SDS011;10600;53.096;8.802;2023-10-08T05:15:56;1.00;;;0.90;;
20880;SDS011;10600;53.096;8.802;2023-10-08T05:17:19;1.17;;;1.00;;
20880;SDS011;10600;53.096;8.802;2023-10-08T05:18:20;1.25;;;1.10;;
20880;SDS011;10600;53.096;8.802;2023-10-08T05:19:23;1.20;;;1.10;;
20880;SDS011;10600;53.096;8.802;2023-10-08T05:20:37;1.23;;;1.13;;
20880;SDS011;10600;53.096;8.802;2023-10-08T05:21:50;1.30;;;1.15;;
20880;SDS011;10600;53.096;8.802;2023-10-08T05:23:02;1.38;;;1.27;;
20880;SDS011;10600;53.096;8.802;2023-10-08T05:24:20;1.30;;;1.10;;
20880;SDS011;10600;53.096;8.802;2023-10-08T05:25:27;1.30;;;1.20;;
20880;SDS011;10600;53.096;8.802;2023-10-08T05:26:40;1.30;;;1.20;;
20880;SDS011;10600;53.096;8.802;2023-10-08T05:27:43;1.00;;;1.00;;
20880;SDS011;10600;53.096;8.802;2023-10-08T05:28:47;1.63;;;1.30;;
20880;SDS011;10600;53.096;8.802;2023-10-08T05:30:27;1.35;;;1.25;;
20880;SDS011;10600;53.096;8.802;2023-10-08T05:31:28;1.30;;;1.20;;
20880;SDS011;10600;53.096;8.802;2023-10-08T05:32:44;0.90;;;0.90;;
20880;SDS011;10600;53.096;8.802;2023-10-08T05:34:06;1.40;;;1.13;;
20880;SDS011;10600;53.096;8.802;2023-10-08T05:35:33;0.95;;;0.90;;
20880;SDS011;10600;53.096;8.802;2023-10-08T05:36:40;1.20;;;1.10;;
20880;SDS011;10600;53.096;8.802;2023-10-08T05:38:01;1.02;;;0.90;;
20880;SDS011;10600;53.096;8.802;2023-10-08T05:39:13;1.25;;;1.13;;
20880;SDS011;10600;53.096;8.802;2023-10-08T05:40:32;0.80;;;0.80;;
20880;SDS011;10600;53.096;8.802;2023-10-08T05:41:54;1.40;;;1.13;;
20880;SDS011;10600;53.096;8.802;2023-10-08T05:43:13;1.20;;;1.10;;
20880;SDS011;10600;53.096;8.802;2023-10-08T05:44:33;1.10;;;1.00;;
20880;SDS011;10600;53.096;8.802;2023-10-08T05:45:40;1.17;;;1.08;;
20880;SDS011;10600;53.096;8.802;2023-10-08T05:47:02;1.10;;;1.00;;
20880;SDS011;10600;53.096;8.802;2023-10-08T05:48:12;1.20;;;1.10;;
20880;SDS011;10600;53.096;8.802;2023-10-08T05:49:18;1.35;;;1.23;;
20880;SDS011;10600;53.096;8.802;2023-10-08T05:50:31;1.10;;;0.90;;
20880;SDS011;10600;53.096;8.802;2023-10-08T05:51:55;1.58;;;1.10;;
20880;SDS011;10600;53.096;8.802;2023-10-08T05:52:56;1.00;;;0.90;;
20880;SDS011;10600;53.096;8.802;2023-10-08T05:53:57;1.00;;;0.90;;
20880;SDS011;10600;53.096;8.802;2023-10-08T05:54:58;1.20;;;1.10;;
20880;SDS011;10600;53.096;8.802;2023-10-08T05:56:14;1.15;;;1.08;;
20880;SDS011;10600;53.096;8.802;2023-10-08T05:57:28;0.95;;;0.82;;
20880;SDS011;10600;53.096;8.802;2023-10-08T05:58:38;1.95;;;1.00;;
20880;SDS011;10600;53.096;8.802;2023-10-08T05:59:49;1.13;;;1.02;;
20880;SDS011;10600;53.096;8.802;2023-10-08T06:01:12;1.20;;;1.10;;
20880;SDS011;10600;53.096;8.802;2023-10-08T06:02:33;1.25;;;1.15;;
20880;SDS011;10600;53.096;8.802;2023-10-08T06:03:34;0.98;;;0.90;;
20880;SDS011;10600;53.096;8.802;2023-10-08T06:04:37;1.17;;;1.08;;
20880;SDS011;10600;53.096;8.802;2023-10-08T06:05:53;1.10;;;1.00;;
20880;SDS011;10600;53.096;8.802;2023-10-08T06:07:07;1.17;;;1.08;;
20880;SDS011;10600;53.096;8.802;2023-10-08T06:08:23;1.10;;;1.00;;
20880;SDS011;10600;53.096;8.802;2023-10-08T06:09:44;1.23;;;1.10;;
20880;SDS011;10600;53.096;8.802;2023-10-08T06:11:01;1.40;;;1.30;;
20880;SDS011;10600;53.096;8.802;2023-10-08T06:12:17;0.95;;;0.93;;
20880;SDS011;10600;53.096;8.802;2023-10-08T06:13:30;1.52;;;1.10;;
20880;SDS011;10600;53.096;8.802;2023-10-08T06:14:45;1.20;;;1.10;;
20880;SDS011;10600;53.096;8.802;2023-10-08T06:15:52;1.20;;;1.10;;
20880;SDS011;10600;53.096;8.802;2023-10-08T06:16:57;0.90;;;0.90;;
20880;SDS011;10600;53.096;8.802;2023-10-08T06:18:24;1.50;;;0.93;;
20880;SDS011;10600;53.096;8.802;2023-10-08T06:19:28;1.20;;;0.93;;
20880;SDS011;10600;53.096;8.802;2023-10-08T06:20:33;0.75;;;0.60;;
20880;SDS011;10600;53.096;8.802;2023-10-08T06:21:38;0.93;;;0.70;;
20880;SDS011;10600;53.096;8.802;2023-10-08T06:22:39;1.35;;;0.70;;
20880;SDS011;10600;53.096;8.802;2023-10-08T06:23:41;0.52;;;0.50;;
20880;SDS011;10600;53.096;8.802;2023-10-08T06:24:42;0.52;;;0.52;;
20880;SDS011;10600;53.096;8.802;2023-10-08T06:25:47;0.70;;;0.60;;
20880;SDS011;10600;53.096;8.802;2023-10-08T06:26:54;0.90;;;0.50;;
20880;SDS011;10600;53.096;8.802;2023-10-08T06:27:55;0.55;;;0.50;;
20880;SDS011;10600;53.096;8.802;2023-10-08T06:28:57;0.85;;;0.50;;
20880;SDS011;10600;53.096;8.802;2023-10-08T06:29:58;0.90;;;0.50;;
20880;SDS011;10600;53.096;8.802;2023-10-08T06:31:00;0.93;;;0.60;;
20880;SDS011;10600;53.096;8.802;2023-10-08T06:32:01;0.52;;;0.40;;
20880;SDS011;10600;53.096;8.802;2023-10-08T06:33:02;0.50;;;0.40;;
20880;SDS011;10600;53.096;8.802;2023-10-08T06:34:03;0.77;;;0.50;;
20880;SDS011;10600;53.096;8.802;2023-10-08T06:35:08;0.60;;;0.40;;